Terminal Aerodrome Forecast
Issued by NWS

Home | Current Version | Previous Version | Text Only | Print | Product List | Glossary On
Versions: 1 2 3 4 5 6 7 8 9 10 11 12 13 14 15 16 17 18 19 20 21
000
FTUS43 KMQT 202300
TAFIWD
TAF
KIWD 202338Z 2100/2124 VRB03KT P6SM BKN150
     FM210300 VRB03KT P6SM VCSH BKN050
     FM210600 03004KT P6SM OVC010
     FM210800 02004KT P6SM OVC008
     FM211400 01008KT P6SM OVC015
     FM211800 35008KT P6SM SCT030
      AMD LTD TO CLD VIS AND WIND=

USA.gov is the U.S. government's official web portal to all federal, state and local government web resources and services.